Flight Track Log - Related Links

Times and Time Zones

All times are in EDT time to prevent confusion due to time zone crossing. See the N1944E flight status page for this flight to view local times or setup timezone preferences in your user account.

Time Position Orientation Groundspeed Altitude Reporting Facility
EDT Latitude Longitude Course Direction KTS MPH feet Rate Location/Type
Wed 10:04:10 AM 43.5417 -110.7822 209° Southwest 134 154 8,700  Level Salt Lake Center
Wed 10:05:11 AM 43.5089 -110.8025 204° Southwest 132 152 9,900 1,131 Climbing Salt Lake Center
Wed 10:06:12 AM 43.4736 -110.8231 203° Southwest 133 153 11,000 1,073 Climbing Salt Lake Center
Wed 10:07:00 AM 43.7606 -110.4569 51° Northeast  Level Estimated
Wed 10:07:14 AM 43.4386 -110.8486 208° Southwest 140 161 12,100  Level Salt Lake Center
Wed 10:08:00 AM 43.7860 -110.4098 53° Northeast  Level FlightAware Approximate
Wed 10:08:15 AM 43.3922 -110.8800 206° Southwest 152 175 13,400  Level Salt Lake Center
Wed 10:09:17 AM 43.3522 -110.8986 199° South 154 177 14,400 780 Climbing Salt Lake Center
Wed 10:10:18 AM 43.3339 -110.8464 116° Southeast 169 194 15,000 726 Climbing Salt Lake Center
Wed 10:11:21 AM 43.3483 -110.7867 72° East 165 190 15,900 878 Climbing Salt Lake Center
Wed 10:12:21 AM 43.3772 -110.7458 46° Northeast 151 174 16,800 595 Climbing Salt Lake Center
Wed 10:13:22 AM 43.4086 -110.7014 46° Northeast 161 185 17,100 146 Climbing Salt Lake Center
Wed 10:14:24 AM 43.4436 -110.6492 47° Northeast 185 213 17,100 -48 Level Salt Lake Center
Wed 10:15:26 AM 43.4806 -110.5994 44° Northeast 186 214 17,000 -49 Descending Salt Lake Center
Wed 10:16:27 AM 43.5250 -110.5386 45° Northeast 190 219 17,000  Level Salt Lake Center
Wed 10:17:28 AM 43.5619 -110.4900 44° Northeast 185 213 17,000 49 Level Salt Lake Center
Wed 10:18:30 AM 43.5981 -110.4394 45° Northeast 186 214 17,100 49 Climbing Salt Lake Center
Wed 10:19:31 AM 43.6311 -110.3853 50° Northeast 185 213 17,100  Level Salt Lake Center
Wed 10:20:33 AM 43.6667 -110.3283 49° Northeast 193 222 17,100  Level Salt Lake Center
Wed 10:21:34 AM 43.7011 -110.2744 49° Northeast 188 216 17,100 -49 Level Salt Lake Center
Wed 10:22:36 AM 43.7406 -110.2275 41° Northeast 187 215 17,000 -146 Descending Salt Lake Center
Wed 10:23:37 AM 43.7819 -110.1606 49° Northeast 189 217 16,800 -98 Descending Salt Lake Center
Wed 10:24:39 AM 43.8189 -110.1089 45° Northeast 190 219 16,800  Level Salt Lake Center
Wed 10:25:40 AM 43.8539 -110.0539 49° Northeast 190 219 16,800  Level Salt Lake Center
Wed 10:26:42 AM 43.8889 -110.0003 48° Northeast 189 217 16,800  Level Salt Lake Center
Wed 10:27:43 AM 43.9264 -109.9464 46° Northeast 184 212 16,800  Level Salt Lake Center
Wed 10:28:45 AM 43.9603 -109.8939 48° Northeast 188 216 16,800  Level Salt Lake Center
Wed 10:29:46 AM 44.0008 -109.8333 47° Northeast 191 220 16,800  Level Salt Lake Center
Wed 10:30:48 AM 44.0319 -109.7831 49° Northeast 191 220 16,800  Level Salt Lake Center

Login

Don't have an account? Register now (free) for customized features, flight alerts, and more!